Latest Coastal Weather Observations for Point Perpendicular

IDN60701

Issued at 8:35 am EDT Wednesday 22 October 2014 (issued every 10 minutes, with the page automatically refreshed every 10 minutes)

About coastal observations | Map of coastal stations | Coastal observations for NSW | Marine services | Other Formats
Station Details ID: 068151 Name: POINT PERPENDICULAR AWS Lat: -35.09 Lon: 150.80 Height: 85.0 m
Data from the previous 72 hours. | See also: Recent months at Point Perpendicular
Date/Time
EDT
Temp

°C
Wind Pressure Rain
since 9am
mm
Weather Cloud Vis
km
Sea
Height
m
Swell
Dir
 
Speed
knots
Gust
knots
hPa Trend Height
m
Period
s
Dir
22/08:30am 17.1 N 11 18 1026.5 - 0.0 - - - - - - -
22/08:00am 15.2 N 10 15 1026.6 - 0.0 - - - - - - -
22/07:30am 15.3 N 10 15 1026.7 - 0.0 - - - - - - -
22/07:00am 14.9 N 8 12 1026.9 - 0.0 - - - - - - -
22/06:30am 14.8 N 9 14 1026.7 - 0.0 - - - - - - -
22/06:00am 14.3 N 4 6 1026.7 - 0.0 - - - - - - -
22/05:30am 14.4 N 5 7 1026.7 - 0.0 - - - - - - -
22/05:00am 14.5 N 6 9 1026.6 - 0.0 - - - - - - -
22/04:30am 14.7 N 7 11 1027.0 - 0.0 - - - - - - -
22/04:00am 14.6 N 7 11 1027.2 - 0.0 - - - - - - -
22/03:30am 14.6 N 4 6 1027.6 - 0.0 - - - - - - -
22/03:00am 14.6 N 4 5 1028.0 - 0.0 - - - - - - -
22/02:30am 14.6 N 5 7 1028.3 - 0.0 - - - - - - -
22/02:00am 14.8 N 5 7 1028.8 - 0.0 - - - - - - -
22/01:30am 15.2 N 6 11 1029.1 - 0.0 - - - - - - -
22/01:00am 15.4 NNE 9 15 1029.6 - 0.0 - - - - - - -
22/12:30am 15.5 NNE 11 15 1030.2 - 0.0 - - - - - - -
22/12:00am 15.4 NNE 7 11 1030.6 - 0.0 - - - - - - -
 
Date/Time
EDT
Temp

°C
Wind Pressure Rain
since 9am
mm
Weather Cloud Vis
km
Sea
Height
m
Swell
Dir
 
Speed
knots
Gust
knots
hPa Trend Height
m
Period
s
Dir
21/11:30pm 15.1 NNE 6 8 1030.7 - 0.0 - - - - - - -
21/11:00pm 15.2 NNE 6 11 1030.8 - 0.0 - - - - - - -
21/10:30pm 15.5 N 5 7 1031.0 - 0.0 - - - - - - -
21/10:00pm 15.5 NNE 7 12 1031.2 - 0.0 - - - - - - -
21/09:30pm 15.6 NE 8 12 1031.1 - 0.0 - - - - - - -
21/09:00pm 15.5 NE 6 8 1031.2 - 0.0 - - - - - - -
21/08:30pm 15.5 NE 7 11 1031.0 - 0.0 - - - - - - -
21/08:00pm 15.5 NE 6 11 1030.8 - 0.0 - - - - - - -
21/07:30pm 15.5 NE 7 11 1030.5 - 0.0 - - - - - - -
21/07:00pm 15.6 NE 8 12 1030.3 - 0.0 - - - - - - -
21/06:30pm 15.8 NNE 8 12 1030.3 - 0.0 - - - - - - -
21/06:00pm 16.2 NE 8 12 1030.1 - 0.0 - - - - - - -
21/05:30pm 16.5 NE 7 12 1030.2 - 0.0 - - - - - - -
21/05:00pm 16.6 NE 8 13 1030.3 - 0.0 - - - - - - -
21/04:30pm 16.8 NE 9 14 1030.3 - 0.0 - - - - - - -
21/04:00pm 16.9 NNE 8 12 1030.6 - 0.0 - - - - - - -
21/03:30pm 17.2 NNE 8 12 1030.8 - 0.0 - - - - - - -
21/03:00pm 17.2 NE 8 14 1031.1 - 0.0 - - - - - - -
21/02:30pm 17.1 NE 8 13 1031.2 - 0.0 - - - - - - -
21/02:00pm 17.2 NE 9 14 1031.8 - 0.0 - - - - - - -
21/01:30pm 17.1 NE 8 13 1032.1 - 0.0 - - - - - - -
21/01:00pm 16.9 NE 9 14 1032.5 - 0.0 - - - - - - -
21/12:30pm 16.7 ENE 8 13 1032.7 - 0.0 - - - - - - -
21/12:00pm 17.5 ENE 7 12 1033.0 - 0.0 - - - - - - -
21/11:30am 17.1 NE 5 9 1033.2 - 0.0 - - - - - - -
21/11:00am 16.6 ENE 4 9 1033.4 - 0.0 - - - - - - -
21/10:30am 15.5 N 1 4 1033.4 - 0.0 - - - - - - -
21/10:00am 15.3 W 4 6 1033.4 - 0.0 - - - - - - -
21/09:30am 14.7 WSW 4 6 1033.3 - 0.0 - - - - - - -
21/09:00am 14.9 WNW 4 6 1033.1 - 0.0 - - - - - - -
21/08:30am 14.9 NW 5 6 1032.8 - 0.0 - - - - - - -
21/08:00am 15.6 E 3 7 1032.5 - 0.0 - - - - - - -
21/07:30am 15.5 ESE 4 8 1032.2 - 0.0 - - - - - - -
21/07:00am 15.4 ESE 3 4 1031.8 - 0.0 - - - - - - -
21/06:30am 15.3 ESE 3 7 1031.7 - 0.0 - - - - - - -
21/06:00am 15.2 SW 3 4 1031.5 - 0.0 - - - - - - -
21/05:30am 15.1 CALM 0 0 1031.3 - 0.0 - - - - - - -
21/05:00am 14.5 SW 5 8 1031.4 - 0.0 - - - - - - -
21/04:30am 15.0 WSW 1 5 1031.4 - 0.0 - - - - - - -
21/04:00am 15.1 S 3 5 1031.4 - 0.0 - - - - - - -
21/03:30am 15.2 SE 4 9 1031.6 - 0.0 - - - - - - -
21/03:00am 15.2 SE 4 8 1031.6 - 0.0 - - - - - - -
21/02:30am 15.2 SSE 5 11 1031.7 - 0.0 - - - - - - -
21/02:00am 15.2 SE 4 7 1031.8 - 0.0 - - - - - - -
21/01:30am 15.1 SSE 6 11 1031.9 - 0.0 - - - - - - -
21/01:00am 15.2 SE 5 8 1032.1 - 0.0 - - - - - - -
21/12:30am 15.1 SE 7 12 1032.3 - 0.0 - - - - - - -
21/12:00am 15.1 SE 7 13 1032.3 - 0.0 - - - - - - -
 
Date/Time
EDT
Temp

°C
Wind Pressure Rain
since 9am
mm
Weather Cloud Vis
km
Sea
Height
m
Swell
Dir
 
Speed
knots
Gust
knots
hPa Trend Height
m
Period
s
Dir
20/11:30pm 15.1 SE 8 13 1032.3 - 0.0 - - - - - - -
20/11:00pm 15.1 SE 7 13 1032.4 - 0.0 - - - - - - -
20/10:30pm 15.2 SE 8 14 1032.3 - 0.0 - - - - - - -
20/10:00pm 15.2 SE 8 13 1032.4 - 0.0 - - - - - - -
20/09:30pm 15.3 SE 9 13 1032.3 - 0.0 - - - - - - -
20/09:00pm 15.4 SE 8 14 1032.2 - 0.0 - - - - - - -
20/08:30pm 15.3 SE 8 13 1032.0 - 0.0 - - - - - - -
20/08:00pm 15.3 SE 7 12 1031.8 - 0.0 - - - - - - -
20/07:30pm 15.3 SE 8 14 1031.5 - 0.0 - - - - - - -
20/07:00pm 15.3 ESE 7 12 1031.2 - 0.0 - - - - - - -
20/06:30pm 15.2 SSE 8 15 1030.9 - 0.0 - - - - - - -
20/06:00pm 15.0 SSE 5 7 1031.0 - 0.0 - - - - - - -
20/05:30pm 14.9 SE 6 12 1031.0 - 0.0 - - - - - - -
20/05:00pm 14.8 SSE 9 17 1030.8 - 0.0 - - - - - - -
20/04:30pm 15.6 SSE 8 13 1030.3 - 0.0 - - - - - - -
20/04:00pm 16.1 SSE 9 15 1030.6 - 0.0 - - - - - - -
20/03:30pm 15.9 S 10 16 1030.5 - 0.0 - - - - - - -
20/03:00pm 15.7 SSE 11 15 1030.7 - 0.0 - - - - - - -
20/02:30pm 15.7 SSE 11 17 1030.7 - 0.0 - - - - - - -
20/02:00pm 15.6 S 12 18 1030.8 - 0.0 - - - - - - -
20/01:30pm 15.3 S 14 22 1030.4 - 0.0 - - - - - - -
20/01:00pm 15.9 S 14 22 1030.6 - 0.0 - - - - - - -
20/12:30pm 15.7 SSE 12 18 1030.8 - 0.0 - - - - - - -
20/12:00pm 15.3 S 14 23 1031.0 - 0.0 - - - - - - -
20/11:30am 15.1 SSE 16 26 1030.7 - 0.0 - - - - - - -
20/11:10am 15.4 S 16 26 1030.6 - 0.0 - - - - - - -
20/11:00am 15.0 S 17 25 1030.3 - 0.0 - - - - - - -
20/10:40am 15.6 S 16 28 1030.1 - 0.0 - - - - - - -
20/10:30am 15.9 SSE 15 23 1030.3 - 0.0 - - - - - - -
20/10:00am 15.6 S 18 26 1029.8 - 0.0 - - - - - - -
20/09:34am 15.8 S 15 25 1029.4 - 0.0 - - - - - - -
20/09:30am 15.8 S 16 25 1029.4 - 0.0 - - - - - - -
20/09:00am 15.9 S 18 28 1028.7 - 0.0 - - - - - - -
20/08:30am 15.9 S 19 34 1028.3 - 0.0 - - - - - - -
20/08:00am 15.9 S 21 32 1027.5 - 0.0 - - - - - - -
20/07:38am 16.1 S 17 27 1027.3 - 0.0 - - - - - - -
20/07:30am 16.1 S 18 27 1026.9 - 0.0 - - - - - - -
20/07:24am 16.2 SSE 17 27 1027.3 - 0.0 - - - - - - -
20/07:00am 16.2 S 18 26 1026.5 - 0.0 - - - - - - -
20/06:30am 16.2 S 18 28 1026.1 - 0.0 - - - - - - -
20/06:00am 16.6 S 19 29 1025.3 - 0.0 - - - - - - -
20/05:31am 16.7 S 19 29 1024.8 - 0.0 - - - - - - -
20/05:30am 16.7 S 20 28 1024.8 - 0.0 - - - - - - -
20/05:00am 16.8 S 20 33 1023.9 - 0.0 - - - - - - -
20/04:30am 16.9 S 20 31 1023.4 - 0.0 - - - - - - -
20/04:00am 17.1 S 19 29 1021.9 - 0.0 - - - - - - -
20/03:44am 17.8 SSE 15 26 1021.5 - 0.0 - - - - - - -
20/03:30am 18.6 S 17 25 1020.9 - 0.0 - - - - - - -
20/03:26am 19.0 S 17 23 1021.0 - 0.0 - - - - - - -
20/03:00am 20.6 NW 7 8 1020.6 - 0.0 - - - - - - -
20/02:30am 20.3 NW 7 9 1020.6 - 0.0 - - - - - - -
20/02:00am 20.9 N 8 9 1020.5 - 0.0 - - - - - - -
20/01:30am 21.2 N 8 9 1020.6 - 0.0 - - - - - - -
20/01:00am 18.4 N 8 11 1020.9 - 0.0 - - - - - - -
20/12:30am 18.5 N 9 12 1021.0 - 0.0 - - - - - - -
20/12:00am 17.9 N 9 12 1021.0 - 0.0 - - - - - - -
 
Date/Time
EDT
Temp

°C
Wind Pressure Rain
since 9am
mm
Weather Cloud Vis
km
Sea
Height
m
Swell
Dir
 
Speed
knots
Gust
knots
hPa Trend Height
m
Period
s
Dir
19/11:30pm 17.9 N 9 12 1021.1 - 0.0 - - - - - - -
19/11:00pm 17.7 N 9 12 1021.3 - 0.0 - - - - - - -
19/10:30pm 17.8 N 12 15 1021.2 - 0.0 - - - - - - -
19/10:00pm 18.1 N 10 13 1021.5 - 0.0 - - - - - - -
19/09:30pm 18.4 N 12 17 1021.4 - 0.0 - - - - - - -
19/09:00pm 18.4 N 13 18 1021.0 - 0.0 - - - - - - -
19/08:30pm 18.3 NNE 14 18 1020.8 - 0.0 - - - - - - -
19/08:00pm 18.4 NNE 14 18 1020.5 - 0.0 - - - - - - -
19/07:30pm 18.4 NNE 15 21 1020.2 - 0.0 - - - - - - -
19/07:00pm 18.5 NNE 16 23 1020.0 - 0.0 - - - - - - -
19/06:32pm 19.0 NNE 17 27 1019.9 - 0.0 - - - - - - -
19/06:30pm 19.1 NNE 18 27 1019.9 - 0.0 - - - - - - -
19/06:00pm 19.5 NNE 17 26 1019.8 - 0.0 - - - - - - -
19/05:30pm 19.9 NNE 17 25 1019.7 - 0.0 - - - - - - -
19/05:00pm 20.4 NNE 18 26 1019.9 - 0.0 - - - - - - -
19/04:30pm 20.8 NNE 17 23 1020.2 - 0.0 - - - - - - -
19/04:00pm 20.9 NNE 18 24 1020.4 - 0.0 - - - - - - -
19/03:30pm 21.6 NNE 19 26 1020.7 - 0.0 - - - - - - -
19/03:00pm 21.9 NNE 19 25 1021.1 - 0.0 - - - - - - -
19/02:30pm 22.4 NNE 17 25 1021.4 - 0.0 - - - - - - -
19/02:00pm 23.0 NNE 17 23 1022.0 - 0.0 - - - - - - -
19/01:30pm 23.7 NNE 15 19 1022.5 - 0.0 - - - - - - -
19/01:00pm 23.1 NNE 14 18 1022.7 - 0.0 - - - - - - -
19/12:30pm 23.6 N 12 16 1023.1 - 0.0 - - - - - - -
19/12:00pm 22.5 NNE 13 17 1023.4 - 0.0 - - - - - - -
19/11:30am 22.3 N 12 16 1023.9 - 0.0 - - - - - - -
19/11:00am 20.8 N 12 17 1024.4 - 0.0 - - - - - - -
19/10:30am 20.5 N 13 17 1024.7 - 0.0 - - - - - - -
19/10:00am 19.8 N 12 17 1025.1 - 0.0 - - - - - - -
19/09:30am 18.8 N 11 15 1025.3 - 0.0 - - - - - - -
19/09:00am 17.9 N 11 14 1025.6 - 0.0 - - - - - - -

Other Formats:

Comma delimited format used in spreadsheet applications
http://www.bom.gov.au/fwo/IDN60701/IDN60701.95940.axf

JavaScript Object Notation format (JSON) in row-major order
http://www.bom.gov.au/fwo/IDN60701/IDN60701.95940.json